createdAt,value
2019-04-01T00:04:00.812Z,101837.70
2019-04-01T00:09:07.944Z,101833.34
2019-04-01T00:14:13.458Z,101834.92
2019-04-01T00:19:18.904Z,101836.92
2019-04-01T00:24:24.326Z,101832.56
2019-04-01T00:29:29.720Z,101831.34
2019-04-01T00:34:35.145Z,101826.93
2019-04-01T00:39:40.634Z,101836.49
2019-04-01T00:44:46.156Z,101837.89
2019-04-01T00:49:51.599Z,101837.21
2019-04-01T00:54:57.044Z,101832.47
2019-04-01T01:00:02.454Z,101829.65
2019-04-01T01:05:07.956Z,101842.64
2019-04-01T01:10:13.489Z,101835.39
2019-04-01T01:15:18.882Z,101833.58
2019-04-01T01:20:24.281Z,101829.70
2019-04-01T01:25:29.692Z,101826.87
2019-04-01T01:30:35.113Z,101823.78
2019-04-01T01:35:40.529Z,101824.83
2019-04-01T01:40:45.977Z,101823.22
2019-04-01T01:45:51.373Z,101818.71
2019-04-01T01:50:56.810Z,101814.48
2019-04-01T01:56:02.199Z,101817.23
2019-04-01T02:01:07.701Z,101812.09
2019-04-01T02:06:13.162Z,101805.69
2019-04-01T02:11:18.552Z,101806.94
2019-04-01T02:16:23.978Z,101803.48
2019-04-01T02:21:29.377Z,101798.27
2019-04-01T02:26:34.800Z,101797.83
2019-04-01T02:31:40.257Z,101802.82
2019-04-01T02:36:45.654Z,101800.04
2019-04-01T02:41:51.099Z,101797.64
2019-04-01T02:46:56.535Z,101795.59
2019-04-01T02:52:02.107Z,101794.01
2019-04-01T02:57:07.650Z,101791.55
2019-04-01T03:02:13.138Z,101784.04
2019-04-01T03:07:18.592Z,101788.97
2019-04-01T03:12:24.150Z,101786.36
2019-04-01T03:17:29.617Z,101786.45
2019-04-01T03:22:35.112Z,101790.67
2019-04-01T03:27:40.545Z,101786.80
2019-04-01T03:32:46.450Z,101784.58
2019-04-01T03:37:51.895Z,101786.56
2019-04-01T03:42:57.825Z,101784.89
2019-04-01T03:48:03.282Z,101787.59
2019-04-01T03:53:08.768Z,101786.81
2019-04-01T03:58:14.247Z,101786.30
2019-04-01T04:03:19.617Z,101790.52
2019-04-01T04:08:25.048Z,101788.38
2019-04-01T04:13:30.458Z,101785.81
2019-04-01T04:18:35.948Z,101780.38
2019-04-01T04:23:41.358Z,101786.01
2019-04-01T04:28:46.802Z,101778.66
2019-04-01T04:33:52.202Z,101781.58
2019-04-01T04:38:57.635Z,101780.95
2019-04-01T04:44:03.053Z,101777.70
2019-04-01T04:49:08.534Z,101774.69
2019-04-01T04:54:13.977Z,101774.84
2019-04-01T04:59:19.437Z,101774.88
2019-04-01T05:04:25.041Z,101778.47
2019-04-01T05:09:30.458Z,101779.23
2019-04-01T05:14:36.056Z,101780.31
2019-04-01T05:19:41.547Z,101780.91
2019-04-01T05:24:46.932Z,101783.63
2019-04-01T05:29:54.058Z,101781.55
2019-04-01T05:34:59.500Z,101784.64
2019-04-01T05:40:05.846Z,101785.63
2019-04-01T05:45:11.838Z,101784.79
2019-04-01T05:50:17.306Z,101787.06
2019-04-01T05:55:22.719Z,101786.06
2019-04-01T06:00:44.579Z,101779.00
2019-04-01T06:05:50.243Z,101781.53
2019-04-01T06:10:55.726Z,101785.03
2019-04-01T06:16:01.282Z,101790.62
2019-04-01T06:21:06.826Z,101791.08
2019-04-01T06:26:12.275Z,101784.13
2019-04-01T06:31:17.689Z,101775.06
2019-04-01T06:36:23.196Z,101758.39
2019-04-01T06:41:28.711Z,101756.97
2019-04-01T06:46:34.158Z,101742.45
2019-04-01T06:51:39.592Z,101734.25
2019-04-01T06:56:45.078Z,101732.80
2019-04-01T07:01:50.641Z,101729.46
2019-04-01T07:06:56.041Z,101717.50
2019-04-01T07:12:01.570Z,101718.27
2019-04-01T07:17:07.087Z,101716.20
2019-04-01T07:22:12.515Z,101716.42
2019-04-01T07:27:17.941Z,101712.17
2019-04-01T07:32:23.442Z,101703.81
2019-04-01T07:37:28.894Z,101703.89
2019-04-01T07:42:34.373Z,101699.19
2019-04-01T07:47:39.807Z,101694.91
2019-04-01T07:52:45.293Z,101687.47
2019-04-01T07:57:50.857Z,101689.44
2019-04-01T08:02:59.434Z,101675.02
2019-04-01T08:08:05.318Z,101666.78
2019-04-01T08:13:11.194Z,101665.78
2019-04-01T08:18:17.000Z,101657.85
2019-04-01T08:23:22.692Z,101661.69
2019-04-01T08:28:28.363Z,101654.84
2019-04-01T08:33:34.347Z,101648.66
2019-04-01T08:38:40.050Z,101646.03
2019-04-01T08:43:45.754Z,101637.56
2019-04-01T08:48:51.478Z,101623.36
2019-04-01T08:53:57.181Z,101616.39
2019-04-01T08:59:03.003Z,101616.08
2019-04-01T09:04:08.718Z,101611.06
2019-04-01T09:09:14.434Z,101604.14
2019-04-01T09:14:20.198Z,101598.06
2019-04-01T09:19:25.899Z,101593.70
2019-04-01T09:24:31.592Z,101596.73
2019-04-01T09:29:37.305Z,101580.95
2019-04-01T09:34:43.034Z,101578.77
2019-04-01T09:39:48.878Z,101576.38
2019-04-01T09:44:54.598Z,101577.97
2019-04-01T09:50:00.393Z,101563.88
2019-04-01T09:55:06.509Z,101564.66
2019-04-01T10:00:12.884Z,101572.58
2019-04-01T10:05:20.413Z,101583.02
2019-04-01T10:10:25.913Z,101588.27
2019-04-01T10:15:31.347Z,101577.84
2019-04-01T10:20:36.776Z,101580.25
2019-04-01T10:25:42.260Z,101572.32
2019-04-01T10:30:48.155Z,101571.42
2019-04-01T10:35:53.591Z,101569.17
2019-04-01T10:40:59.112Z,101560.44
2019-04-01T10:46:04.677Z,101554.59
2019-04-01T10:51:10.186Z,101545.69
2019-04-01T10:56:15.683Z,101535.86
2019-04-01T11:01:21.376Z,101532.89
2019-04-01T11:06:26.987Z,101526.88
2019-04-01T11:11:32.523Z,101514.98
2019-04-01T11:16:38.063Z,101515.20
2019-04-01T11:21:43.490Z,101511.61
2019-04-01T11:26:48.919Z,101497.31
2019-04-01T11:31:54.531Z,101493.64
2019-04-01T11:37:00.086Z,101492.47
2019-04-01T11:42:05.577Z,101480.91
2019-04-01T11:47:11.132Z,101482.11
2019-04-01T11:52:16.564Z,101467.44
2019-04-01T11:57:22.250Z,101460.34
2019-04-01T12:02:28.008Z,101457.75
2019-04-01T12:07:33.430Z,101445.55
2019-04-01T12:12:38.848Z,101433.83
2019-04-01T12:17:44.307Z,101425.50
2019-04-01T12:22:49.723Z,101416.73
2019-04-01T12:27:55.153Z,101407.14
2019-04-01T12:33:00.694Z,101402.41
2019-04-01T12:38:06.245Z,101387.62
2019-04-01T12:43:11.883Z,101383.48
2019-04-01T12:48:17.326Z,101370.03
2019-04-01T12:53:22.932Z,101371.45
2019-04-01T12:58:28.444Z,101364.05
2019-04-01T13:03:34.030Z,101352.23
2019-04-01T13:08:39.636Z,101347.62
2019-04-01T13:13:45.343Z,101340.30
2019-04-01T13:18:52.367Z,101328.33
2019-04-01T13:23:57.783Z,101318.77
2019-04-01T13:29:03.200Z,101312.80
2019-04-01T13:34:08.594Z,101294.22
2019-04-01T13:39:14.382Z,101290.83
2019-04-01T13:44:19.928Z,101289.19
2019-04-01T13:49:25.431Z,101277.31
2019-04-01T13:54:30.841Z,101264.27
2019-04-01T13:59:48.382Z,101244.29
2019-04-01T14:04:43.538Z,101239.98
2019-04-01T14:09:49.925Z,101239.93
2019-04-01T14:14:56.160Z,101234.66
2019-04-01T14:20:01.585Z,101221.73
2019-04-01T14:25:07.536Z,101212.86
2019-04-01T14:30:13.136Z,101208.61
2019-04-01T14:35:18.715Z,101203.80
2019-04-01T14:40:24.223Z,101198.38
2019-04-01T14:45:29.713Z,101194.41
2019-04-01T14:50:35.129Z,101183.61
2019-04-01T14:55:40.571Z,101171.48
2019-04-01T15:00:46.036Z,101169.17
2019-04-01T15:05:51.493Z,101163.65
2019-04-01T15:10:56.949Z,101161.54
2019-04-01T15:16:02.641Z,101147.33
2019-04-01T15:21:11.439Z,101136.92
2019-04-01T15:26:15.320Z,101129.55
2019-04-01T15:31:20.743Z,101118.66
2019-04-01T15:36:27.053Z,101116.69
2019-04-01T15:41:32.797Z,101110.41
2019-04-01T15:46:38.326Z,101107.00
2019-04-01T15:51:43.881Z,101099.66
2019-04-01T15:56:49.579Z,101090.46
2019-04-01T16:01:55.025Z,101089.75
2019-04-01T16:07:00.594Z,101074.31
2019-04-01T16:12:06.120Z,101073.53
2019-04-01T16:17:11.589Z,101069.02
2019-04-01T16:22:17.082Z,101067.74
2019-04-01T16:27:22.524Z,101062.73
2019-04-01T16:32:29.211Z,101055.71
2019-04-01T16:37:34.807Z,101058.30
2019-04-01T16:42:40.261Z,101059.51
2019-04-01T16:47:48.473Z,101056.85
2019-04-01T16:52:53.180Z,101050.95
2019-04-01T16:57:58.816Z,101050.93
2019-04-01T17:03:04.304Z,101047.25
2019-04-01T17:08:10.282Z,101042.03
2019-04-01T17:13:16.127Z,101039.48
2019-04-01T17:18:21.569Z,101035.46
2019-04-01T17:23:28.198Z,101034.00
2019-04-01T17:28:33.927Z,101026.32
2019-04-01T17:33:39.374Z,101021.00
2019-04-01T17:38:47.990Z,101020.45
2019-04-01T17:43:52.109Z,101029.48
2019-04-01T17:48:57.565Z,101025.66
2019-04-01T17:54:03.280Z,101028.70
2019-04-01T17:59:08.805Z,101028.03
2019-04-01T18:04:14.380Z,101021.06
2019-04-01T18:09:19.938Z,101021.02
2019-04-01T18:14:25.810Z,101022.55
2019-04-01T18:19:31.683Z,101019.32
2019-04-01T18:24:37.529Z,101017.30
2019-04-01T18:29:43.254Z,101020.46
2019-04-01T18:34:48.730Z,101029.61
2019-04-01T18:39:57.025Z,101026.91
2019-04-01T18:45:01.399Z,101025.38
2019-04-01T18:50:07.044Z,101034.20
2019-04-01T18:55:12.505Z,101029.44
2019-04-01T19:00:18.563Z,101031.09
2019-04-01T19:05:24.322Z,101034.48
2019-04-01T19:10:29.835Z,101030.23
2019-04-01T19:15:36.776Z,101030.02
2019-04-01T19:20:55.758Z,101029.67
2019-04-01T19:25:50.514Z,101026.75
2019-04-01T19:30:56.180Z,101031.09
2019-04-01T19:36:01.652Z,101027.69
2019-04-01T19:41:07.312Z,101031.06
2019-04-01T19:46:13.056Z,101029.76
2019-04-01T19:51:18.546Z,101029.49
2019-04-01T19:56:24.110Z,101030.11
2019-04-01T20:01:29.781Z,101031.71
2019-04-01T20:06:35.239Z,101036.41
2019-04-01T20:11:40.690Z,101041.28
2019-04-01T20:16:47.114Z,101042.83
2019-04-01T20:21:52.853Z,101046.78
2019-04-01T20:26:58.418Z,101037.68
2019-04-01T20:32:16.303Z,101031.32
2019-04-01T20:37:11.366Z,101023.55
2019-04-01T20:42:17.216Z,101026.25
2019-04-01T20:47:23.102Z,101029.55
2019-04-01T20:52:28.629Z,101022.24
2019-04-01T20:57:34.084Z,101022.64
2019-04-01T21:02:39.498Z,101013.16
2019-04-01T21:07:45.021Z,101006.02
2019-04-01T21:12:50.436Z,100999.00
2019-04-01T21:17:56.061Z,101000.66
2019-04-01T21:23:02.006Z,100989.23
2019-04-01T21:28:07.468Z,100986.02
2019-04-01T21:33:13.161Z,100988.12
2019-04-01T21:38:19.600Z,100987.16
2019-04-01T21:43:25.051Z,100987.67
2019-04-01T21:48:30.481Z,100985.95
2019-04-01T21:53:35.937Z,100984.45
2019-04-01T21:58:41.349Z,100979.64
2019-04-01T22:03:46.774Z,100979.38
2019-04-01T22:08:52.256Z,100969.19
2019-04-01T22:13:57.715Z,100967.94
2019-04-01T22:19:03.191Z,100962.88
2019-04-01T22:24:08.658Z,100959.23
2019-04-01T22:29:14.108Z,100950.33
2019-04-01T22:34:19.566Z,100942.83
2019-04-01T22:39:27.217Z,100938.50
2019-04-01T22:44:32.221Z,100934.41
2019-04-01T22:49:37.673Z,100935.27
2019-04-01T22:54:43.108Z,100928.67
2019-04-01T22:59:49.152Z,100933.73
2019-04-01T23:04:55.969Z,100921.02
2019-04-01T23:10:01.381Z,100915.56
2019-04-01T23:15:07.617Z,100914.50
2019-04-01T23:20:13.031Z,100907.48
2019-04-01T23:25:18.562Z,100906.30
2019-04-01T23:30:23.980Z,100894.45
2019-04-01T23:35:29.465Z,100893.62
2019-04-01T23:40:35.142Z,100889.98
2019-04-01T23:45:40.608Z,100882.79
2019-04-01T23:50:46.065Z,100882.45
2019-04-01T23:55:51.628Z,100873.30
